createdAt,value
2018-09-05T00:00:48.323Z,18.96
2018-09-05T00:01:48.751Z,19.02
2018-09-05T00:02:48.455Z,18.95
2018-09-05T00:03:48.518Z,19.00
2018-09-05T00:04:48.586Z,19.08
2018-09-05T00:05:48.650Z,18.96
2018-09-05T00:06:48.715Z,19.04
2018-09-05T00:07:49.139Z,19.04
2018-09-05T00:08:48.848Z,19.02
2018-09-05T00:09:48.913Z,19.04
2018-09-05T00:10:48.974Z,19.00
2018-09-05T00:11:49.043Z,19.02
2018-09-05T00:12:49.108Z,19.00
2018-09-05T00:13:49.197Z,18.99
2018-09-05T00:14:49.239Z,19.04
2018-09-05T00:15:49.303Z,18.99
2018-09-05T00:16:49.368Z,18.99
2018-09-05T00:17:49.435Z,19.02
2018-09-05T00:18:49.507Z,18.96
2018-09-05T00:19:49.571Z,19.04
2018-09-05T00:20:49.632Z,19.02
2018-09-05T00:21:49.696Z,19.00
2018-09-05T00:22:49.763Z,19.11
2018-09-05T00:23:49.831Z,18.96
2018-09-05T00:24:49.899Z,19.11
2018-09-05T00:25:49.955Z,19.02
2018-09-05T00:26:50.020Z,19.02
2018-09-05T00:27:50.092Z,19.12
2018-09-05T00:28:50.266Z,19.07
2018-09-05T00:29:50.216Z,19.07
2018-09-05T00:30:50.286Z,19.11
2018-09-05T00:31:50.348Z,19.16
2018-09-05T00:32:50.415Z,19.00
2018-09-05T00:33:50.484Z,19.12
2018-09-05T00:34:50.552Z,19.02
2018-09-05T00:35:50.608Z,19.12
2018-09-05T00:36:51.536Z,19.14
2018-09-05T00:37:50.740Z,19.12
2018-09-05T00:38:50.812Z,19.09
2018-09-05T00:39:50.876Z,19.08
2018-09-05T00:40:50.936Z,19.11
2018-09-05T00:41:51.002Z,19.12
2018-09-05T00:42:51.068Z,19.08
2018-09-05T00:43:51.396Z,19.11
2018-09-05T00:44:51.199Z,19.09
2018-09-05T00:45:51.260Z,19.11
2018-09-05T00:46:51.328Z,19.09
2018-09-05T00:47:51.392Z,19.14
2018-09-05T00:48:51.464Z,19.14
2018-09-05T00:49:51.528Z,19.11
2018-09-05T00:50:51.591Z,19.11
2018-09-05T00:51:52.544Z,19.07
2018-09-05T00:52:51.720Z,19.11
2018-09-05T00:53:51.793Z,18.96
2018-09-05T00:54:51.860Z,19.00
2018-09-05T00:55:51.912Z,19.12
2018-09-05T00:56:51.980Z,19.11
2018-09-05T00:57:52.045Z,19.02
2018-09-05T00:58:52.205Z,19.07
2018-09-05T00:59:52.183Z,18.96
2018-09-05T01:00:52.241Z,19.14
2018-09-05T01:01:52.312Z,19.00
2018-09-05T01:06:23.187Z,19.02
2018-09-05T01:07:01.637Z,19.07
2018-09-05T01:08:01.705Z,19.07
2018-09-05T01:09:01.770Z,19.07
2018-09-05T01:10:01.871Z,18.99
2018-09-05T01:11:01.901Z,18.99
2018-09-05T01:12:01.969Z,18.95
2018-09-05T01:13:02.030Z,19.02
2018-09-05T01:14:02.098Z,19.00
2018-09-05T01:15:02.213Z,18.96
2018-09-05T01:16:02.225Z,18.93
2018-09-05T01:17:02.290Z,18.95
2018-09-05T01:18:02.358Z,19.00
2018-09-05T01:19:02.425Z,18.98
2018-09-05T01:20:02.496Z,18.96
2018-09-05T01:21:02.562Z,18.96
2018-09-05T01:22:02.617Z,18.98
2018-09-05T01:23:02.686Z,18.93
2018-09-05T01:24:02.749Z,18.95
2018-09-05T01:25:02.822Z,18.92
2018-09-05T01:26:02.886Z,19.02
2018-09-05T01:27:02.946Z,18.93
2018-09-05T01:28:03.010Z,18.98
2018-09-05T01:29:03.074Z,18.96
2018-09-05T01:30:03.237Z,18.92
2018-09-05T01:31:03.206Z,18.96
2018-09-05T01:32:03.273Z,19.02
2018-09-05T01:33:03.335Z,18.90
2018-09-05T01:34:03.403Z,18.96
2018-09-05T01:35:03.475Z,18.98
2018-09-05T01:36:03.538Z,18.98
2018-09-05T01:37:03.599Z,19.04
2018-09-05T01:38:03.662Z,18.99
2018-09-05T01:39:03.727Z,18.90
2018-09-05T01:40:03.798Z,18.93
2018-09-05T01:41:03.867Z,18.96
2018-09-05T01:42:03.923Z,18.90
2018-09-05T01:43:03.990Z,18.93
2018-09-05T01:44:04.055Z,18.90
2018-09-05T01:45:04.147Z,18.95
2018-09-05T01:46:04.182Z,18.93
2018-09-05T01:47:04.251Z,18.93
2018-09-05T01:48:04.315Z,18.78
2018-09-05T01:49:04.379Z,18.92
2018-09-05T01:50:04.451Z,18.95
2018-09-05T01:51:04.519Z,18.84
2018-09-05T01:52:04.576Z,18.93
2018-09-05T01:53:04.643Z,18.90
2018-09-05T01:54:04.707Z,18.93
2018-09-05T01:55:04.811Z,18.88
2018-09-05T01:56:04.851Z,18.74
2018-09-05T01:57:04.903Z,18.92
2018-09-05T01:58:04.967Z,18.83
2018-09-05T01:59:05.028Z,18.92
2018-09-05T02:00:05.128Z,18.95
2018-09-05T02:01:05.164Z,18.93
2018-09-05T02:02:05.228Z,18.80
2018-09-05T02:03:05.294Z,18.84
2018-09-05T02:04:05.359Z,18.80
2018-09-05T02:05:05.435Z,18.90
2018-09-05T02:06:05.497Z,18.81
2018-09-05T02:07:05.556Z,18.83
2018-09-05T02:08:05.620Z,18.88
2018-09-05T02:09:05.683Z,18.78
2018-09-05T02:10:05.756Z,18.86
2018-09-05T02:11:05.819Z,18.92
2018-09-05T02:12:05.880Z,18.83
2018-09-05T02:13:05.944Z,18.84
2018-09-05T02:14:06.013Z,18.80
2018-09-05T02:15:06.100Z,18.81
2018-09-05T02:16:06.140Z,18.88
2018-09-05T02:17:06.208Z,18.83
2018-09-05T02:18:06.275Z,18.88
2018-09-05T02:19:06.337Z,18.81
2018-09-05T02:20:06.408Z,18.80
2018-09-05T02:21:06.472Z,18.80
2018-09-05T02:22:06.532Z,18.81
2018-09-05T02:23:06.597Z,18.81
2018-09-05T02:24:06.664Z,18.75
2018-09-05T02:25:06.732Z,18.74
2018-09-05T02:26:06.804Z,18.75
2018-09-05T02:27:06.856Z,18.78
2018-09-05T02:28:06.924Z,18.78
2018-09-05T02:29:06.989Z,18.80
2018-09-05T02:30:07.064Z,18.80
2018-09-05T02:31:07.124Z,18.78
2018-09-05T02:32:07.184Z,18.75
2018-09-05T02:33:07.252Z,18.71
2018-09-05T02:34:07.312Z,18.74
2018-09-05T02:35:07.384Z,18.71
2018-09-05T02:36:07.452Z,18.71
2018-09-05T02:37:07.508Z,18.66
2018-09-05T02:38:07.572Z,18.60
2018-09-05T02:39:07.641Z,18.70
2018-09-05T02:40:07.715Z,18.63
2018-09-05T02:41:07.776Z,18.59
2018-09-05T02:42:07.833Z,18.59
2018-09-05T02:43:07.900Z,18.60
2018-09-05T02:44:07.965Z,18.55
2018-09-05T02:45:08.041Z,18.53
2018-09-05T02:46:08.101Z,18.58
2018-09-05T02:47:08.160Z,18.55
2018-09-05T02:48:08.225Z,18.58
2018-09-05T02:49:08.289Z,18.50
2018-09-05T02:50:08.362Z,18.58
2018-09-05T02:51:08.428Z,18.50
2018-09-05T02:52:08.485Z,18.55
2018-09-05T02:53:08.549Z,18.53
2018-09-05T02:54:08.617Z,18.52
2018-09-05T02:55:08.690Z,18.47
2018-09-05T02:56:08.752Z,18.55
2018-09-05T02:57:08.808Z,18.52
2018-09-05T02:58:08.877Z,18.55
2018-09-05T02:59:08.941Z,18.52
2018-09-05T03:00:09.017Z,18.56
2018-09-05T03:01:09.077Z,18.49
2018-09-05T03:02:09.137Z,18.47
2018-09-05T03:03:09.201Z,18.53
2018-09-05T03:04:09.265Z,18.44
2018-09-05T03:05:09.337Z,18.53
2018-09-05T03:06:09.405Z,18.53
2018-09-05T03:07:09.463Z,18.56
2018-09-05T03:08:09.525Z,18.59
2018-09-05T03:09:09.599Z,18.62
2018-09-05T03:13:14.005Z,18.71
2018-09-05T03:14:14.069Z,18.63
2018-09-05T03:15:14.394Z,18.70
2018-09-05T03:16:14.198Z,18.59
2018-09-05T03:17:14.258Z,18.60
2018-09-05T03:18:14.325Z,18.59
2018-09-05T03:19:14.393Z,18.65
2018-09-05T03:20:14.466Z,18.66
2018-09-05T03:21:14.534Z,18.68
2018-09-05T03:22:14.590Z,18.60
2018-09-05T03:23:14.655Z,18.63
2018-09-05T03:24:14.722Z,18.63
2018-09-05T03:25:14.791Z,18.65
2018-09-05T03:26:14.858Z,18.62
2018-09-05T03:27:14.914Z,18.63
2018-09-05T03:28:14.982Z,18.65
2018-09-05T03:29:15.046Z,18.63
2018-09-05T03:30:15.147Z,18.68
2018-09-05T03:31:15.175Z,18.66
2018-09-05T03:32:15.267Z,18.65
2018-09-05T03:33:15.307Z,18.66
2018-09-05T03:34:15.370Z,18.66
2018-09-05T03:35:15.443Z,18.78
2018-09-05T03:36:15.510Z,18.70
2018-09-05T03:37:15.567Z,18.77
2018-09-05T03:38:15.631Z,18.73
2018-09-05T03:39:15.701Z,18.70
2018-09-05T03:40:15.767Z,18.74
2018-09-05T03:41:15.834Z,18.74
2018-09-05T03:42:15.890Z,18.77
2018-09-05T03:43:15.955Z,18.78
2018-09-05T03:44:16.023Z,18.74
2018-09-05T03:46:49.711Z,18.80
2018-09-05T03:47:49.771Z,18.77
2018-09-05T03:48:49.839Z,18.81
2018-09-05T03:49:49.996Z,18.78
2018-09-05T03:50:50.076Z,18.80
2018-09-05T03:51:50.035Z,18.81
2018-09-05T03:52:50.099Z,18.73
2018-09-05T03:53:50.160Z,18.75
2018-09-05T03:54:50.224Z,18.70
2018-09-05T03:55:50.300Z,18.77
2018-09-05T03:56:50.367Z,18.74
2018-09-05T03:57:50.423Z,18.70
2018-09-05T03:58:50.488Z,18.63
2018-09-05T03:59:50.555Z,18.65
2018-09-05T04:00:50.632Z,18.66
2018-09-05T04:01:50.695Z,18.68
2018-09-05T04:02:50.751Z,18.66
2018-09-05T04:03:50.821Z,18.66
2018-09-05T04:04:50.880Z,18.68
2018-09-05T04:05:50.952Z,18.68
2018-09-05T04:06:51.016Z,18.68
2018-09-05T04:07:51.080Z,18.68
2018-09-05T04:08:51.140Z,18.63
2018-09-05T04:09:51.208Z,18.66
2018-09-05T04:10:51.360Z,18.63
2018-09-05T04:11:51.340Z,18.71
2018-09-05T04:12:51.401Z,18.66
2018-09-05T04:13:51.468Z,18.65
2018-09-05T04:14:51.532Z,18.73
2018-09-05T04:15:51.607Z,18.66
2018-09-05T04:16:51.668Z,18.63
2018-09-05T04:17:51.732Z,18.65
2018-09-05T04:18:51.792Z,18.62
2018-09-05T04:19:51.856Z,18.59
2018-09-05T04:20:51.929Z,18.70
2018-09-05T04:21:52.037Z,18.71
2018-09-05T04:22:52.053Z,18.65
2018-09-05T04:23:52.116Z,18.62
2018-09-05T04:24:52.185Z,18.63
2018-09-05T04:25:52.274Z,18.63
2018-09-05T04:26:52.312Z,18.63
2018-09-05T04:27:52.381Z,18.65
2018-09-05T04:28:52.444Z,18.63
2018-09-05T04:29:52.522Z,18.66
2018-09-05T04:30:52.581Z,18.63
2018-09-05T04:31:52.645Z,18.65
2018-09-05T04:32:52.700Z,18.68
2018-09-05T04:33:52.769Z,18.60
2018-09-05T04:34:52.833Z,18.65
2018-09-05T04:35:52.905Z,18.60
2018-09-05T04:36:52.969Z,18.58
2018-09-05T04:37:53.029Z,18.62
2018-09-05T04:38:53.093Z,18.59
2018-09-05T04:39:53.157Z,18.56
2018-09-05T04:40:53.253Z,18.56
2018-09-05T04:41:53.289Z,18.56
2018-09-05T04:42:53.353Z,18.52
2018-09-05T04:43:53.417Z,18.50
2018-09-05T04:44:53.485Z,18.49
2018-09-05T04:45:53.557Z,18.66
2018-09-05T04:46:53.621Z,18.52
2018-09-05T04:47:53.677Z,18.53
2018-09-05T04:48:53.745Z,18.50
2018-09-05T04:49:53.810Z,18.45
2018-09-05T04:50:53.881Z,18.44
2018-09-05T04:51:53.950Z,18.41
2018-09-05T04:52:54.005Z,18.53
2018-09-05T04:53:54.069Z,18.55
2018-09-05T04:54:54.133Z,18.59
2018-09-05T04:55:54.470Z,18.53
2018-09-05T04:56:54.270Z,18.53
2018-09-05T04:57:54.330Z,18.47
2018-09-05T04:58:54.394Z,18.50
2018-09-05T04:59:54.458Z,18.53
2018-09-05T05:00:54.530Z,18.49
2018-09-05T05:01:54.600Z,18.41
2018-09-05T05:02:54.654Z,18.56
2018-09-05T05:03:54.737Z,18.47
2018-09-05T05:04:54.786Z,18.62
2018-09-05T05:05:54.922Z,18.56
2018-09-05T05:06:54.922Z,18.53
2018-09-05T05:07:54.981Z,18.45
2018-09-05T05:08:55.042Z,18.53
2018-09-05T05:09:55.112Z,18.53
2018-09-05T05:10:55.270Z,18.60
2018-09-05T05:11:55.243Z,18.45
2018-09-05T05:12:55.302Z,18.49
2018-09-05T05:13:55.385Z,18.49
2018-09-05T05:14:55.434Z,18.55
2018-09-05T05:15:55.508Z,18.55
2018-09-05T05:16:55.571Z,18.53
2018-09-05T05:17:55.632Z,18.60
2018-09-05T05:18:55.699Z,18.62
2018-09-05T05:19:55.759Z,18.70
2018-09-05T05:20:55.831Z,18.62
2018-09-05T05:21:55.895Z,18.74
2018-09-05T05:22:55.955Z,18.63
2018-09-05T05:23:56.024Z,18.60
2018-09-05T05:24:56.083Z,18.70
2018-09-05T05:25:56.155Z,18.75
2018-09-05T05:26:56.239Z,18.71
2018-09-05T05:27:56.285Z,18.75
2018-09-05T05:28:56.382Z,18.73
2018-09-05T05:29:56.411Z,18.84
2018-09-05T05:30:56.476Z,18.83
2018-09-05T05:31:56.547Z,18.81
2018-09-05T05:32:56.674Z,18.88
2018-09-05T05:33:56.672Z,18.93
2018-09-05T05:34:56.736Z,18.90
2018-09-05T05:35:56.799Z,18.92
2018-09-05T05:36:56.874Z,18.93
2018-09-05T05:37:56.940Z,18.98
2018-09-05T05:38:56.996Z,18.98
2018-09-05T05:39:57.060Z,19.11
2018-09-05T05:40:57.132Z,19.12
2018-09-05T05:41:57.292Z,19.14
2018-09-05T05:42:57.256Z,19.18
2018-09-05T05:43:57.320Z,19.22
2018-09-05T05:44:57.393Z,19.19
2018-09-05T05:45:57.458Z,19.14
2018-09-05T05:46:57.526Z,19.22
2018-09-05T05:47:57.589Z,19.19
2018-09-05T05:48:57.649Z,19.18
2018-09-05T05:49:57.712Z,19.22
2018-09-05T05:50:57.780Z,19.27
2018-09-05T05:51:57.854Z,19.33
2018-09-05T05:52:57.918Z,19.36
2018-09-05T05:53:57.976Z,19.37
2018-09-05T05:54:58.075Z,19.34
2018-09-05T05:55:58.105Z,19.41
2018-09-05T05:56:58.173Z,19.41
2018-09-05T05:57:58.426Z,19.45
2018-09-05T05:58:58.301Z,19.51
2018-09-05T05:59:58.368Z,19.44
2018-09-05T06:00:58.475Z,19.52
2018-09-05T06:01:58.497Z,19.47
2018-09-05T06:02:58.568Z,19.55
2018-09-05T06:03:58.636Z,19.64
2018-09-05T06:04:58.696Z,19.56
2018-09-05T06:05:58.784Z,19.67
2018-09-05T06:06:58.825Z,19.71
2018-09-05T06:07:58.897Z,19.73
2018-09-05T06:08:58.965Z,19.79
2018-09-05T06:09:59.021Z,19.85
2018-09-05T06:10:59.089Z,19.85
2018-09-05T06:11:59.208Z,20.00
2018-09-05T06:12:59.397Z,20.02
2018-09-05T06:13:59.287Z,20.00
2018-09-05T06:14:59.349Z,20.11
2018-09-05T06:15:59.417Z,20.16
2018-09-05T06:16:59.481Z,20.18
2018-09-05T06:17:59.586Z,20.18
2018-09-05T06:18:59.621Z,20.31
2018-09-05T06:19:59.682Z,20.34
2018-09-05T06:20:59.803Z,20.34
2018-09-05T06:21:59.850Z,20.28
2018-09-05T06:22:59.885Z,20.41
2018-09-05T06:23:59.990Z,20.40
2018-09-05T06:25:00.010Z,20.47
2018-09-05T06:26:00.074Z,20.44
2018-09-05T06:27:00.142Z,20.58
2018-09-05T06:28:00.483Z,20.56
2018-09-05T06:29:00.273Z,20.60
2018-09-05T06:30:00.338Z,20.58
2018-09-05T06:31:00.425Z,20.65
2018-09-05T06:32:00.470Z,20.63
2018-09-05T06:33:00.546Z,20.70
2018-09-05T06:34:00.613Z,20.72
2018-09-05T06:35:00.670Z,20.80
2018-09-05T06:36:00.737Z,20.81
2018-09-05T06:37:00.802Z,20.80
2018-09-05T06:38:00.874Z,20.85
2018-09-05T06:39:00.970Z,20.96
2018-09-05T06:40:01.002Z,20.95
2018-09-05T06:41:01.070Z,21.00
2018-09-05T06:42:01.134Z,20.92
2018-09-05T06:43:01.298Z,21.02
2018-09-05T06:44:01.266Z,21.07
2018-09-05T06:45:01.397Z,21.07
2018-09-05T06:46:01.404Z,21.20
2018-09-05T06:47:01.473Z,21.15
2018-09-05T06:48:01.538Z,21.20
2018-09-05T06:49:01.607Z,21.20
2018-09-05T06:50:01.667Z,21.32
2018-09-05T06:51:01.730Z,21.32
2018-09-05T06:52:01.800Z,21.42
2018-09-05T06:53:01.870Z,21.50
2018-09-05T06:54:01.938Z,21.54
2018-09-05T06:55:01.999Z,21.62
2018-09-05T06:56:02.062Z,21.66
2018-09-05T06:57:02.131Z,21.77
2018-09-05T06:58:02.371Z,21.73
2018-09-05T06:59:02.263Z,21.77
2018-09-05T07:00:02.334Z,21.92
2018-09-05T07:01:02.399Z,21.93
2018-09-05T07:02:02.463Z,22.15
2018-09-05T07:03:02.539Z,22.15
2018-09-05T07:04:02.666Z,22.20
2018-09-05T07:05:02.663Z,22.26
2018-09-05T07:06:02.731Z,22.29
2018-09-05T07:07:02.851Z,22.36
2018-09-05T07:08:02.871Z,22.44
2018-09-05T07:09:02.948Z,22.48
2018-09-05T07:10:03.049Z,22.48
2018-09-05T07:11:03.068Z,22.51
2018-09-05T07:12:03.132Z,22.50
2018-09-05T07:13:03.333Z,22.51
2018-09-05T07:14:03.274Z,22.60
2018-09-05T07:15:03.336Z,22.55
2018-09-05T07:16:03.404Z,22.62
2018-09-05T07:17:03.468Z,22.66
2018-09-05T07:18:03.544Z,22.81
2018-09-05T07:19:03.612Z,22.78
2018-09-05T07:20:03.680Z,22.84
2018-09-05T07:21:06.679Z,22.90
2018-09-05T07:22:03.861Z,22.90
2018-09-05T07:23:03.885Z,22.83
2018-09-05T07:24:03.947Z,22.88
2018-09-05T07:25:04.019Z,23.00
2018-09-05T07:26:04.077Z,23.12
2018-09-05T07:27:04.144Z,23.18
2018-09-05T07:28:04.227Z,23.15
2018-09-05T07:29:04.280Z,23.17
2018-09-05T07:30:04.343Z,23.10
2018-09-05T07:31:04.412Z,23.13
2018-09-05T07:32:04.479Z,23.20
2018-09-05T07:33:04.551Z,23.18
2018-09-05T07:34:04.619Z,23.23
2018-09-05T07:35:04.680Z,23.21
2018-09-05T07:36:04.748Z,23.32
2018-09-05T07:37:04.816Z,23.34
2018-09-05T07:38:04.892Z,23.41
2018-09-05T07:39:04.964Z,23.36
2018-09-05T07:40:05.021Z,23.40
2018-09-05T07:41:05.091Z,23.50
2018-09-05T07:42:05.156Z,23.58
2018-09-05T07:43:05.224Z,23.88
2018-09-05T07:44:05.404Z,23.93
2018-09-05T07:45:05.360Z,24.02
2018-09-05T07:46:05.429Z,24.01
2018-09-05T07:47:05.492Z,24.26
2018-09-05T07:48:05.564Z,24.32
2018-09-05T07:49:05.636Z,24.42
2018-09-05T07:50:05.712Z,24.54
2018-09-05T07:51:05.830Z,24.53
2018-09-05T07:52:05.861Z,24.54
2018-09-05T07:53:05.904Z,24.65
2018-09-05T07:54:05.988Z,24.68
2018-09-05T07:55:06.045Z,24.70
2018-09-05T07:56:06.109Z,24.89
2018-09-05T07:57:06.176Z,24.96
2018-09-05T07:58:06.244Z,25.01
2018-09-05T07:59:06.320Z,25.26
2018-09-05T08:00:06.585Z,25.70
2018-09-05T08:01:06.448Z,26.31
2018-09-05T08:02:06.520Z,26.63
2018-09-05T08:03:06.590Z,26.38
2018-09-05T08:04:06.660Z,26.47
2018-09-05T08:05:06.733Z,26.45
2018-09-05T08:06:06.805Z,26.13
2018-09-05T08:07:06.865Z,26.29
2018-09-05T08:08:06.932Z,26.38
2018-09-05T08:09:07.005Z,26.44
2018-09-05T08:10:07.181Z,26.38
2018-09-05T08:11:07.145Z,26.65
2018-09-05T08:12:07.213Z,27.12
2018-09-05T08:13:07.284Z,27.27
2018-09-05T08:14:07.356Z,27.44
2018-09-05T08:15:07.429Z,27.27
2018-09-05T08:16:07.501Z,27.14
2018-09-05T08:17:07.565Z,27.64
2018-09-05T08:18:07.705Z,27.83
2018-09-05T08:19:07.705Z,27.67
2018-09-05T08:20:07.783Z,27.40
2018-09-05T08:21:07.853Z,27.07
2018-09-05T08:22:07.917Z,27.22
2018-09-05T08:23:07.989Z,27.26
2018-09-05T08:24:08.104Z,27.02
2018-09-05T08:25:08.217Z,26.77
2018-09-05T08:26:08.205Z,26.73
2018-09-05T08:27:08.270Z,26.55
2018-09-05T08:28:08.341Z,26.34
2018-09-05T08:29:08.419Z,26.26
2018-09-05T08:30:08.558Z,26.16
2018-09-05T08:31:08.561Z,26.10
2018-09-05T08:32:08.626Z,26.10
2018-09-05T08:33:08.693Z,26.16
2018-09-05T08:34:08.765Z,26.13
2018-09-05T08:35:09.010Z,26.07
2018-09-05T08:36:09.139Z,26.16
2018-09-05T08:37:09.180Z,26.19
2018-09-05T08:38:09.049Z,26.56
2018-09-05T08:39:09.114Z,26.92
2018-09-05T08:40:09.290Z,26.90
2018-09-05T08:41:09.304Z,27.12
2018-09-05T08:42:09.356Z,27.14
2018-09-05T08:43:09.394Z,26.97
2018-09-05T08:44:09.586Z,27.55
2018-09-05T08:45:09.953Z,28.07
2018-09-05T08:46:09.762Z,28.42
2018-09-05T08:47:09.684Z,28.67
2018-09-05T08:48:09.834Z,28.63
2018-09-05T08:49:09.824Z,28.63
2018-09-05T08:50:09.918Z,28.47
2018-09-05T08:51:09.970Z,28.25
2018-09-05T08:52:10.038Z,28.22
2018-09-05T08:53:10.107Z,28.29
2018-09-05T08:54:10.179Z,28.22
2018-09-05T08:55:10.457Z,28.17
2018-09-05T08:56:10.403Z,28.14
2018-09-05T08:57:10.394Z,27.89
2018-09-05T08:58:10.463Z,27.78
2018-09-05T08:59:10.537Z,27.75
2018-09-05T09:00:10.613Z,27.67
2018-09-05T09:01:10.682Z,27.86
2018-09-05T09:02:10.747Z,27.63
2018-09-05T09:03:10.822Z,27.52
2018-09-05T09:04:10.891Z,27.22
2018-09-05T09:05:10.968Z,27.27
2018-09-05T09:06:11.039Z,27.49
2018-09-05T09:07:11.103Z,27.74
2018-09-05T09:08:11.175Z,27.70
2018-09-05T09:09:11.247Z,27.77
2018-09-05T09:10:11.416Z,28.32
2018-09-05T09:11:11.388Z,28.30
2018-09-05T09:12:11.463Z,28.25
2018-09-05T09:13:11.532Z,28.51
2018-09-05T09:14:11.604Z,28.64
2018-09-05T09:15:11.684Z,28.67
2018-09-05T09:16:11.762Z,29.23
2018-09-05T09:17:11.820Z,28.97
2018-09-05T09:18:11.896Z,29.22
2018-09-05T09:19:11.960Z,29.45
2018-09-05T09:20:12.040Z,29.90
2018-09-05T09:21:12.112Z,30.16
2018-09-05T09:22:12.180Z,30.08
2018-09-05T09:23:12.248Z,29.86
2018-09-05T09:24:12.324Z,29.63
2018-09-05T09:25:12.664Z,29.49
2018-09-05T09:26:12.468Z,29.66
2018-09-05T09:27:12.544Z,29.39
2018-09-05T09:28:12.633Z,29.23
2018-09-05T09:29:12.685Z,29.19
2018-09-05T09:30:12.764Z,29.02
2018-09-05T09:31:12.837Z,29.17
2018-09-05T09:32:12.901Z,29.44
2018-09-05T09:33:12.973Z,29.57
2018-09-05T09:34:13.046Z,29.69
2018-09-05T09:35:13.276Z,30.02
2018-09-05T09:36:13.191Z,30.06
2018-09-05T09:37:13.265Z,29.87
2018-09-05T09:38:13.336Z,29.68
2018-09-05T09:39:13.409Z,29.50
2018-09-05T09:40:13.485Z,29.29
2018-09-05T09:41:13.564Z,29.16
2018-09-05T09:42:13.625Z,28.98
2018-09-05T09:43:13.697Z,28.86
2018-09-05T09:44:13.769Z,28.72
2018-09-05T09:45:13.849Z,28.64
2018-09-05T09:46:13.921Z,28.74
2018-09-05T09:47:13.987Z,28.69
2018-09-05T09:48:14.057Z,28.70
2018-09-05T09:49:14.130Z,28.64
2018-09-05T09:50:14.201Z,28.37
2018-09-05T09:51:14.381Z,28.44
2018-09-05T09:52:14.345Z,28.47
2018-09-05T09:53:14.417Z,28.54
2018-09-05T09:54:14.489Z,28.57
2018-09-05T09:55:14.561Z,28.67
2018-09-05T09:56:14.637Z,28.66
2018-09-05T09:57:14.710Z,28.89
2018-09-05T09:58:14.778Z,28.75
2018-09-05T09:59:14.851Z,28.70
2018-09-05T10:00:14.917Z,28.88
2018-09-05T10:01:14.998Z,28.85
2018-09-05T10:02:15.069Z,28.82
2018-09-05T10:03:15.161Z,28.91
2018-09-05T10:04:15.206Z,28.78
2018-09-05T10:05:15.278Z,28.79
2018-09-05T10:06:15.350Z,28.64
2018-09-05T10:07:15.565Z,28.74
2018-09-05T10:08:15.494Z,28.48
2018-09-05T10:09:15.566Z,28.38
2018-09-05T10:10:16.108Z,28.45
2018-09-05T10:11:15.706Z,28.41
2018-09-05T10:12:15.786Z,28.47
2018-09-05T10:13:15.859Z,28.63
2018-09-05T10:14:15.924Z,28.69
2018-09-05T10:15:15.994Z,28.82
2018-09-05T10:16:16.066Z,28.89
2018-09-05T10:17:16.167Z,29.04
2018-09-05T10:18:16.206Z,28.91
2018-09-05T10:19:16.278Z,29.05
2018-09-05T10:20:16.354Z,29.23
2018-09-05T10:21:16.422Z,29.23
2018-09-05T10:22:16.505Z,29.39
2018-09-05T10:23:16.570Z,29.60
2018-09-05T10:24:16.639Z,29.87
2018-09-05T10:25:16.708Z,29.93
2018-09-05T10:26:16.783Z,29.49
2018-09-05T10:27:16.859Z,29.49
2018-09-05T10:28:16.930Z,29.44
2018-09-05T10:29:16.994Z,29.68
2018-09-05T10:30:17.067Z,30.02
2018-09-05T10:31:17.139Z,30.31
2018-09-05T10:32:17.413Z,30.27
2018-09-05T10:33:17.283Z,30.10
2018-09-05T10:34:17.355Z,30.23
2018-09-05T10:35:17.424Z,30.70
2018-09-05T10:36:17.495Z,31.00
2018-09-05T10:37:17.575Z,31.12
2018-09-05T10:38:17.648Z,30.69
2018-09-05T10:39:17.711Z,30.16
2018-09-05T10:40:17.783Z,30.03
2018-09-05T10:41:17.855Z,30.25
2018-09-05T10:42:17.935Z,30.16
2018-09-05T10:43:18.007Z,30.19
2018-09-05T10:44:18.124Z,29.73
2018-09-05T10:45:18.152Z,29.59
2018-09-05T10:46:18.220Z,29.50
2018-09-05T10:47:18.288Z,29.29
2018-09-05T10:48:18.520Z,29.17
2018-09-05T10:49:18.431Z,28.98
2018-09-05T10:50:18.504Z,28.94
2018-09-05T10:51:18.576Z,28.91
2018-09-05T10:52:18.647Z,29.05
2018-09-05T10:53:18.730Z,28.94
2018-09-05T10:54:18.796Z,28.91
2018-09-05T10:55:18.860Z,28.75
2018-09-05T10:56:18.932Z,28.67
2018-09-05T10:57:19.004Z,28.69
2018-09-05T10:58:19.172Z,28.89
2018-09-05T10:59:19.148Z,28.86
2018-09-05T11:00:19.220Z,28.86
2018-09-05T11:01:19.292Z,29.01
2018-09-05T11:02:19.364Z,29.38
2018-09-05T11:03:19.440Z,29.47
2018-09-05T11:04:19.579Z,29.73
2018-09-05T11:05:19.593Z,30.02
2018-09-05T11:06:19.648Z,30.02
2018-09-05T11:07:19.720Z,30.18
2018-09-05T11:08:19.803Z,30.23
2018-09-05T11:09:19.872Z,30.34
2018-09-05T11:10:19.984Z,30.35
2018-09-05T11:11:20.009Z,30.03
2018-09-05T11:12:20.081Z,29.93
2018-09-05T11:13:20.245Z,29.88
2018-09-05T11:14:20.225Z,29.57
2018-09-05T11:15:20.293Z,29.39
2018-09-05T11:16:20.365Z,29.24
2018-09-05T11:17:20.438Z,29.20
2018-09-05T11:18:20.516Z,29.17
2018-09-05T11:19:20.589Z,29.29
2018-09-05T11:20:20.653Z,29.38
2018-09-05T11:21:20.730Z,29.29
2018-09-05T11:22:20.796Z,29.22
2018-09-05T11:23:20.877Z,29.31
2018-09-05T11:24:20.945Z,29.24
2018-09-05T11:25:21.013Z,29.32
2018-09-05T11:26:21.081Z,29.41
2018-09-05T11:27:21.153Z,29.36
2018-09-05T11:28:21.333Z,29.53
2018-09-05T11:29:21.296Z,29.34
2018-09-05T11:30:21.368Z,29.57
2018-09-05T11:31:21.437Z,29.50
2018-09-05T11:32:21.515Z,29.50
2018-09-05T11:33:21.593Z,29.66
2018-09-05T11:34:21.674Z,29.82
2018-09-05T11:35:21.731Z,29.98
2018-09-05T11:36:21.801Z,30.10
2018-09-05T11:37:21.877Z,30.12
2018-09-05T11:38:21.949Z,30.25
2018-09-05T11:39:22.021Z,30.15
2018-09-05T11:40:22.085Z,29.94
2018-09-05T11:41:22.157Z,29.86
2018-09-05T11:42:22.234Z,29.76
2018-09-05T11:43:22.410Z,29.94
2018-09-05T11:44:22.373Z,29.97
2018-09-05T11:45:22.445Z,30.06
2018-09-05T11:46:22.517Z,30.15
2018-09-05T11:47:22.590Z,30.15
2018-09-05T11:48:22.670Z,29.97
2018-09-05T11:49:22.741Z,29.97
2018-09-05T11:50:22.806Z,29.93
2018-09-05T11:51:22.877Z,29.98
2018-09-05T11:52:22.949Z,29.95
2018-09-05T11:53:23.033Z,30.05
2018-09-05T11:54:23.101Z,30.15
2018-09-05T11:55:23.166Z,30.19
2018-09-05T11:56:23.237Z,30.18
2018-09-05T11:57:23.372Z,30.21
2018-09-05T11:58:23.390Z,30.35
2018-09-05T11:59:23.461Z,30.18
2018-09-05T12:00:23.526Z,30.28
2018-09-05T12:01:23.602Z,30.30
2018-09-05T12:02:23.747Z,30.43
2018-09-05T12:03:23.750Z,30.47
2018-09-05T12:04:23.822Z,30.61
2018-09-05T12:05:23.886Z,30.59
2018-09-05T12:06:23.958Z,30.72
2018-09-05T12:07:24.031Z,30.75
2018-09-05T12:08:24.370Z,30.55
2018-09-05T12:09:24.174Z,30.30
2018-09-05T12:10:24.250Z,30.10
2018-09-05T12:11:24.318Z,30.12
2018-09-05T12:12:24.394Z,29.95
2018-09-05T12:13:24.470Z,29.72
2018-09-05T12:14:24.542Z,29.78
2018-09-05T12:15:24.607Z,29.69
2018-09-05T12:16:24.678Z,29.65
2018-09-05T12:17:24.750Z,29.87
2018-09-05T12:18:24.830Z,29.94
2018-09-05T12:19:24.913Z,30.00
2018-09-05T12:20:24.966Z,30.10
2018-09-05T12:21:25.038Z,29.90
2018-09-05T12:22:25.111Z,30.02
2018-09-05T12:23:25.184Z,30.16
2018-09-05T12:24:25.278Z,30.21
2018-09-05T12:25:25.327Z,30.23
2018-09-05T12:26:25.401Z,30.34
2018-09-05T12:27:25.473Z,30.48
2018-09-05T12:28:25.543Z,30.57
2018-09-05T12:29:25.621Z,30.66
2018-09-05T12:30:25.691Z,30.72
2018-09-05T12:31:25.755Z,30.81
2018-09-05T12:32:25.827Z,30.87
2018-09-05T12:33:25.899Z,30.97
2018-09-05T12:34:25.979Z,30.97
2018-09-05T12:35:26.051Z,31.00
2018-09-05T12:36:26.117Z,30.88
2018-09-05T12:37:26.187Z,31.00
2018-09-05T12:38:26.464Z,30.99
2018-09-05T12:39:26.331Z,31.02
2018-09-05T12:40:26.419Z,31.20
2018-09-05T12:41:26.475Z,31.07
2018-09-05T12:42:26.547Z,30.90
2018-09-05T12:43:26.620Z,30.80
2018-09-05T12:44:26.691Z,30.69
2018-09-05T12:45:26.775Z,30.55
2018-09-05T12:46:26.846Z,30.66
2018-09-05T12:47:26.907Z,30.72
2018-09-05T12:48:26.988Z,30.78
2018-09-05T12:49:27.054Z,30.66
2018-09-05T12:50:27.228Z,30.85
2018-09-05T12:51:27.195Z,30.88
2018-09-05T12:52:27.263Z,30.78
2018-09-05T12:53:27.344Z,30.63
2018-09-05T12:54:27.415Z,30.75
2018-09-05T12:55:27.492Z,30.62
2018-09-05T12:56:27.567Z,30.69
2018-09-05T12:57:27.632Z,30.88
2018-09-05T12:58:27.704Z,30.80
2018-09-05T12:59:27.772Z,30.88
2018-09-05T13:00:27.853Z,30.65
2018-09-05T13:01:27.924Z,30.66